This is the latest recevied weather packets stored in our database for station/object F4JUT-10. If no packets are shown the sender has not sent any weather packets the latest 1 day(s).
| Time | Temp. | Humidity | Pressure | Rain* | Wind** | Luminosity | Snow |
|---|---|---|---|---|---|---|---|
| 1778110374 | 9.44° C | 93% | 1016.9 hPa | - | - | - | - |
| 1778109474 | 9.44° C | 95% | 1016.9 hPa | - | - | - | - |
| 1778108574 | 10° C | 95% | 1016.8 hPa | - | - | - | - |
| 1778107674 | 10.56° C | 97% | 1016.7 hPa | - | - | - | - |
| 1778104973 | 11.67° C | 96% | 1016.7 hPa | - | - | - | - |
| 1778104073 | 11.67° C | 95% | 1016.5 hPa | - | - | - | - |
| 1778095972 | 13.33° C | 74% | 1015.5 hPa | - | - | - | - |
| 1778095072 | 13.33° C | 70% | 1015.2 hPa | - | - | - | - |
| 1778094172 | 13.89° C | 67% | 1014.9 hPa | - | - | - | - |
| 1778093272 | 14.44° C | 69% | 1014.7 hPa | - | - | - | - |
| 1778086071 | 19.44° C | 43% | 1013.6 hPa | - | - | - | - |
| 1778085171 | 20° C | 43% | 1013.6 hPa | - | - | - | - |
| 1778083371 | 20.56° C | 44% | 1013.6 hPa | - | - | - | - |
| 1778079770 | 22.22° C | 42% | 1013.7 hPa | - | - | - | - |
| 1778078870 | 21.67° C | 42% | 1013.8 hPa | - | - | - | - |
| 1778077970 | 21.11° C | 44% | 1014 hPa | - | - | - | - |
| 1778069869 | 23.33° C | 40% | 1014.8 hPa | - | - | - | - |
| 1778068969 | 25.56° C | 33% | 1014.6 hPa | - | - | - | - |
| 1778068069 | 28.33° C | 31% | 1014.5 hPa | - | - | - | - |
| 1778062668 | 16.67° C | 79% | 1015.3 hPa | - | - | - | - |
| 1778061768 | 13.33° C | 87% | 1015.4 hPa | - | - | - | - |
| 1778060868 | 12.22° C | 89% | 1015.3 hPa | - | - | - | - |
| 1778059968 | 12.78° C | 90% | 1015.1 hPa | - | - | - | - |
| 1778059068 | 12.78° C | 93% | 1014.9 hPa | - | - | - | - |
| 1778054567 | 9.44° C | 98% | 1014.4 hPa | - | - | - | - |
* Rain since midnight (hover to see other rain measurements)
** Current wind speed in m/s (hover to see current wind gust speed)